Country Fair, Ohio
Current Conditions -  °F | °C
As of 2:51 PM on Sunday 23 Nov 2014 (Local Time) from KCAK Reporting Station
Overcast Overcast  
Wind Chill: 59°   Ceiling: 9000
Heat Index: 59°   Visibility: 10mi
Dew Point: 43°   Wind: 10mph
Humidity: 55%   Direction: 130°SE
Pressure: 29.83"   Gusts: NA
Location:  40.8156°N, 81.4331°W
Report Text: KCAK 231951Z 13009KT 10SM SCT045 BKN090 OVC150 15/06 A2983 RMK AO2 PRESFR SLP103 T01500061 $
Loading
Personal Weather Stations






























Interactive Weather Map New forecast layout! Learn more

10-Day Weather Forecast

Advertisements
Track Severe Weather on mobile